< < Back
Terminal Aerodrome Forecast


Current Version              Previous Versions:   1  2  3  4  5  6  7  8  9  

Terminal Aerodrome Forecast

567
FTUS42 KJAX 301100
TAFJAX
TAF
KJAX 301120Z 3012/3112 VRB03KT P6SM FEW010 SCT090
     FM301500 16004KT P6SM SCT035
     FM302000 13010KT P6SM VCTS SCT020 BKN035CB BKN120
     FM310000 12007KT P6SM VCSH SCT030 BKN120
     FM310300 18003KT P6SM FEW030 SCT120 BKN250=

Latest METAR

859
SAUS80 KWBC 301400
MTRJAX
METAR KJAX 301356Z VRB03KT 10SM FEW031 FEW100 FEW250 28/23 A3016 RMK AO2
SLP212 T02780228


USA.gov is the U.S. government's official web portal to all federal, state and local government web resources and services.